Time;durP1;ratioP1;P1;durP2;ratioP2;P2;SDS_P1;SDS_P2;PMS_P1;PMS_P2;Temp;Humidity;BMP_temperature;BMP_pressure;BME280_temperature;BME280_humidity;BME280_pressure;Samples;Min_cycle;Max_cycle;Signal;HPM_P1;HPM_P2
2022/05/28 00:01:57;;;;;;;12.70;2.47;;;10.30;99.90;;;;;;4978847;28;20047;-75
2022/05/28 00:04:22;;;;;;;11.18;2.45;;;10.30;99.90;;;;;;4983198;28;20033;-75
2022/05/28 00:06:49;;;;;;;14.40;2.38;;;10.40;99.90;;;;;;4976821;28;20070;-76
2022/05/28 00:09:15;;;;;;;13.35;2.00;;;10.40;99.90;;;;;;4962439;28;20388;-76
2022/05/28 00:11:44;;;;;;;12.82;1.73;;;10.50;99.90;;;;;;4982650;28;20454;-76
2022/05/28 00:14:10;;;;;;;8.65;1.60;;;10.60;99.90;;;;;;4980127;28;20027;-77
2022/05/28 00:16:37;;;;;;;11.57;1.92;;;10.60;99.90;;;;;;4978242;28;20030;-79
2022/05/28 00:19:04;;;;;;;8.48;1.73;;;10.50;99.90;;;;;;4979422;28;20034;-77
2022/05/28 00:21:30;;;;;;;6.40;1.60;;;10.50;99.90;;;;;;4984163;28;20093;-76
2022/05/28 00:23:55;;;;;;;9.20;1.77;;;10.30;99.90;;;;;;4977779;28;20537;-75
2022/05/28 00:26:22;;;;;;;3.95;1.20;;;10.20;99.90;;;;;;4979521;28;20035;-77
2022/05/28 00:28:49;;;;;;;5.78;1.08;;;10.20;99.90;;;;;;4977944;28;20030;-76
2022/05/28 00:31:14;;;;;;;5.82;1.15;;;10.00;99.90;;;;;;4976870;28;20031;-76
2022/05/28 00:33:40;;;;;;;8.40;1.15;;;10.00;99.90;;;;;;4978276;28;20050;-75
2022/05/28 00:36:09;;;;;;;3.28;0.70;;;9.90;99.90;;;;;;4983116;28;20069;-75
2022/05/28 00:38:35;;;;;;;4.88;1.13;;;9.80;99.90;;;;;;4967958;28;20567;-76
2022/05/28 00:41:01;;;;;;;4.55;1.50;;;9.80;99.90;;;;;;4984547;28;20507;-76
2022/05/28 00:43:30;;;;;;;9.30;1.70;;;9.70;99.90;;;;;;4981651;28;20103;-75
2022/05/28 00:46:18;;;;;;;6.25;1.45;;;9.70;99.90;;;;;;4983794;28;20034;-74
2022/05/28 00:48:47;;;;;;;6.90;1.38;;;9.80;99.90;;;;;;4979014;28;20034;-76
2022/05/28 00:51:20;;;;;;;10.38;1.55;;;9.80;99.90;;;;;;4988160;28;20034;-76
2022/05/28 00:53:46;;;;;;;4.20;1.30;;;9.90;99.90;;;;;;4986115;28;20084;-75
2022/05/28 00:56:12;;;;;;;6.22;1.70;;;9.90;99.90;;;;;;4978608;28;20521;-75
2022/05/28 00:58:38;;;;;;;7.55;1.50;;;9.80;99.90;;;;;;4963563;28;20057;-75
2022/05/28 01:01:08;;;;;;;5.30;1.50;;;9.70;99.90;;;;;;4980492;28;20041;-75
2022/05/28 01:03:52;;;;;;;5.25;1.20;;;9.70;99.90;;;;;;4975479;28;20578;-76
2022/05/28 01:06:30;;;;;;;8.60;1.88;;;9.70;99.90;;;;;;4979669;28;20039;-75
2022/05/28 01:09:10;;;;;;;5.05;1.20;;;9.50;99.90;;;;;;4977962;28;20042;-75
2022/05/28 01:12:17;;;;;;;9.02;1.88;;;9.30;99.90;;;;;;4981182;28;20122;-74
2022/05/28 01:15:08;;;;;;;6.28;1.50;;;9.00;99.90;;;;;;4947335;28;20046;-74
2022/05/28 01:17:51;;;;;;;12.77;2.25;;;8.90;99.90;;;;;;4949781;28;20034;-74
2022/05/28 01:20:20;;;;;;;8.88;1.83;;;8.90;99.90;;;;;;4940656;28;20079;-74
2022/05/28 01:22:57;;;;;;;9.63;2.00;;;8.90;99.90;;;;;;4959456;28;20065;-74
2022/05/28 01:25:41;;;;;;;6.75;1.30;;;9.10;99.90;;;;;;4942473;28;20058;-74
2022/05/28 01:28:13;;;;;;;6.85;1.50;;;9.00;99.90;;;;;;4959051;28;20197;-76
2022/05/28 01:30:41;;;;;;;5.00;1.15;;;9.10;99.90;;;;;;4967025;28;20045;-74
2022/05/28 01:33:07;;;;;;;2.88;0.95;;;9.00;99.90;;;;;;4959995;28;20089;-73
2022/05/28 01:35:34;;;;;;;3.67;1.30;;;9.10;99.90;;;;;;4961762;28;20039;-73
2022/05/28 01:38:01;;;;;;;6.35;1.50;;;9.00;99.90;;;;;;4952202;28;20172;-74
2022/05/28 01:40:29;;;;;;;4.30;1.17;;;9.00;99.90;;;;;;4940944;28;20565;-73
2022/05/28 01:42:58;;;;;;;7.38;1.75;;;9.00;99.90;;;;;;4940281;28;20075;-76
2022/05/28 01:45:28;;;;;;;5.30;1.55;;;8.90;99.90;;;;;;4969606;28;20121;-74
2022/05/28 01:47:57;;;;;;;5.70;1.08;;;8.80;99.90;;;;;;4976887;28;20042;-74
2022/05/28 01:50:25;;;;;;;4.85;1.30;;;8.80;99.90;;;;;;4981924;28;20030;-74
2022/05/28 01:52:52;;;;;;;8.18;1.80;;;8.80;99.90;;;;;;4984214;28;20037;-73
2022/05/28 01:55:21;;;;;;;5.45;1.40;;;8.90;99.90;;;;;;4978644;28;20053;-74
2022/05/28 01:57:47;;;;;;;6.47;1.38;;;8.80;99.90;;;;;;4980807;28;20030;-75
2022/05/28 02:00:13;;;;;;;3.42;1.10;;;8.80;99.90;;;;;;4982018;28;20426;-73
2022/05/28 02:02:39;;;;;;;7.70;1.52;;;8.80;99.90;;;;;;4983643;28;20565;-75
2022/05/28 02:05:05;;;;;;;7.10;1.25;;;8.80;99.90;;;;;;4982499;28;20031;-74
2022/05/28 02:07:31;;;;;;;3.03;1.17;;;8.80;99.90;;;;;;4980021;28;20071;-74
2022/05/28 02:10:08;;;;;;;2.83;1.08;;;8.90;99.90;;;;;;4983434;28;20065;-74
2022/05/28 02:13:07;;;;;;;4.60;1.10;;;8.90;99.90;;;;;;4971612;28;20117;-74
2022/05/28 02:16:13;;;;;;;5.45;1.30;;;8.90;99.90;;;;;;4975570;28;20058;-74
2022/05/28 02:18:55;;;;;;;5.43;0.82;;;8.90;99.90;;;;;;4981929;28;20046;-74
2022/05/28 02:21:26;;;;;;;4.90;1.30;;;9.00;99.90;;;;;;4982565;28;21687;-74
2022/05/28 02:23:58;;;;;;;5.18;1.45;;;9.00;99.90;;;;;;4980290;28;20105;-73
2022/05/28 02:26:33;;;;;;;6.47;1.27;;;9.00;99.90;;;;;;4967114;28;20030;-74
2022/05/28 02:29:00;;;;;;;6.93;1.20;;;9.10;99.90;;;;;;4972484;28;20509;-74
2022/05/28 02:31:29;;;;;;;5.47;1.27;;;9.10;99.90;;;;;;4963614;28;20034;-74
2022/05/28 02:33:55;;;;;;;7.47;1.40;;;9.10;99.90;;;;;;4961584;28;20030;-75
2022/05/28 02:36:22;;;;;;;6.32;1.33;;;9.10;99.90;;;;;;4984125;28;20042;-75
2022/05/28 02:38:47;;;;;;;5.75;1.27;;;9.00;99.90;;;;;;4980187;28;20022;-75
2022/05/28 02:41:14;;;;;;;6.28;1.20;;;9.10;99.90;;;;;;4976985;28;20791;-74
2022/05/28 02:43:39;;;;;;;8.50;2.05;;;9.10;99.90;;;;;;4976810;28;20038;-74
2022/05/28 02:46:06;;;;;;;7.13;1.73;;;9.00;99.90;;;;;;4976899;28;20038;-75
2022/05/28 02:48:32;;;;;;;6.22;1.60;;;9.00;99.90;;;;;;4973810;28;20038;-74
2022/05/28 02:51:07;;;;;;;7.15;1.85;;;9.10;99.90;;;;;;4977989;28;20045;-74
2022/05/28 02:53:33;;;;;;;9.88;1.48;;;9.10;99.90;;;;;;4976927;28;20129;-74
2022/05/28 02:56:00;;;;;;;8.77;1.73;;;9.10;99.90;;;;;;4978094;28;20110;-74
2022/05/28 02:58:26;;;;;;;10.77;1.42;;;9.10;99.90;;;;;;4973791;28;20033;-76
2022/05/28 03:00:52;;;;;;;7.30;1.33;;;9.00;99.90;;;;;;4975518;28;20510;-74
2022/05/28 03:03:21;;;;;;;9.65;2.00;;;9.00;99.90;;;;;;4980300;28;20038;-73
2022/05/28 03:05:48;;;;;;;12.35;2.35;;;9.00;99.90;;;;;;4979438;28;20034;-74
2022/05/28 03:08:14;;;;;;;7.35;1.63;;;9.00;99.90;;;;;;4982049;28;20117;-75
2022/05/28 03:10:40;;;;;;;7.25;2.00;;;9.00;99.90;;;;;;4980094;28;20181;-74
2022/05/28 03:13:06;;;;;;;7.60;1.90;;;8.90;99.90;;;;;;4978536;28;20519;-75
2022/05/28 03:15:33;;;;;;;9.00;2.30;;;9.00;99.90;;;;;;4980342;28;20042;-75
2022/05/28 03:17:59;;;;;;;9.65;2.05;;;9.00;99.90;;;;;;4980212;28;20030;-75
2022/05/28 03:20:26;;;;;;;7.18;1.80;;;9.00;99.90;;;;;;4981470;28;20022;-75
2022/05/28 03:22:52;;;;;;;7.20;2.15;;;9.10;99.90;;;;;;4966059;28;20494;-75
2022/05/28 03:25:18;;;;;;;8.55;2.47;;;9.20;99.90;;;;;;4982250;28;20045;-75
2022/05/28 03:27:44;;;;;;;13.10;2.30;;;9.20;99.90;;;;;;4963554;28;20045;-74
2022/05/28 03:30:10;;;;;;;12.18;2.28;;;9.20;99.90;;;;;;4976164;28;20042;-75
2022/05/28 03:32:36;;;;;;;13.35;2.50;;;9.20;99.90;;;;;;4975691;28;20648;-76
2022/05/28 03:35:02;;;;;;;12.15;2.05;;;9.30;99.90;;;;;;4957496;28;20033;-75
2022/05/28 03:37:27;;;;;;;14.02;2.47;;;9.30;99.90;;;;;;4977682;28;20158;-77
2022/05/28 03:39:53;;;;;;;10.85;2.13;;;9.30;99.90;;;;;;4980385;28;20026;-75
2022/05/28 03:42:19;;;;;;;13.23;2.10;;;9.40;99.90;;;;;;4972902;28;20478;-76
2022/05/28 03:44:46;;;;;;;7.57;1.90;;;9.40;99.90;;;;;;4980261;28;20141;-74
2022/05/28 03:47:12;;;;;;;12.30;2.58;;;9.40;99.90;;;;;;4981151;28;20125;-75
2022/05/28 03:49:41;;;;;;;8.35;2.53;;;9.40;99.90;;;;;;4977635;28;20023;-75
2022/05/28 03:52:07;;;;;;;9.18;2.45;;;9.30;99.90;;;;;;4981755;28;20038;-75
2022/05/28 03:54:33;;;;;;;11.32;2.65;;;9.30;99.90;;;;;;4986506;28;21608;-75
2022/05/28 03:57:05;;;;;;;11.23;2.25;;;9.30;99.90;;;;;;4980536;28;20052;-74
2022/05/28 03:59:32;;;;;;;8.02;2.08;;;9.40;99.90;;;;;;4983550;28;20054;-74
2022/05/28 04:01:58;;;;;;;8.80;2.53;;;9.50;99.90;;;;;;4966907;28;20044;-74
2022/05/28 04:04:23;;;;;;;10.30;2.05;;;9.60;99.90;;;;;;4979652;28;20106;-75
2022/05/28 04:06:49;;;;;;;7.32;1.70;;;9.60;99.90;;;;;;4982000;28;20038;-75
2022/05/28 04:09:16;;;;;;;12.38;2.30;;;9.60;99.90;;;;;;4978713;28;20133;-75
2022/05/28 04:11:41;;;;;;;13.48;2.22;;;9.70;99.90;;;;;;4979528;28;20062;-76
2022/05/28 04:14:07;;;;;;;9.65;2.15;;;9.70;99.90;;;;;;4983136;28;20062;-75
2022/05/28 04:16:33;;;;;;;11.00;2.13;;;9.70;99.90;;;;;;4980752;28;20026;-74
2022/05/28 04:18:59;;;;;;;12.45;2.42;;;9.80;99.90;;;;;;4970784;28;20031;-75
2022/05/28 04:21:25;;;;;;;11.07;2.47;;;9.70;99.90;;;;;;4982167;28;20035;-74
2022/05/28 04:23:50;;;;;;;10.88;2.05;;;9.80;99.90;;;;;;4968416;28;21812;-77
2022/05/28 04:26:16;;;;;;;11.07;1.52;;;9.80;99.90;;;;;;4984438;28;20034;-75
2022/05/28 04:28:42;;;;;;;9.68;1.48;;;9.90;99.90;;;;;;4965479;28;20454;-75
2022/05/28 04:31:07;;;;;;;14.75;2.53;;;9.90;99.90;;;;;;4979229;28;20031;-74
2022/05/28 04:33:33;;;;;;;9.23;2.00;;;9.90;99.90;;;;;;4986670;28;20022;-75
2022/05/28 04:35:59;;;;;;;9.68;1.58;;;9.80;99.90;;;;;;4985918;28;20030;-74
2022/05/28 04:38:24;;;;;;;14.18;2.60;;;9.90;99.90;;;;;;4985003;28;20050;-75
2022/05/28 04:40:51;;;;;;;8.02;1.80;;;9.90;99.90;;;;;;4983320;28;20105;-75
2022/05/28 04:43:18;;;;;;;8.48;2.00;;;9.90;99.90;;;;;;4983296;28;20026;-75
2022/05/28 04:45:45;;;;;;;13.80;2.15;;;9.90;99.90;;;;;;4977221;28;20901;-76
2022/05/28 04:48:11;;;;;;;10.00;1.92;;;9.90;99.90;;;;;;4978595;28;20062;-75
2022/05/28 04:50:36;;;;;;;10.57;2.17;;;9.90;99.90;;;;;;4981633;28;20073;-74
2022/05/28 04:53:02;;;;;;;5.68;1.58;;;9.80;99.90;;;;;;4984291;28;20081;-75
2022/05/28 04:55:28;;;;;;;10.45;2.15;;;9.70;99.90;;;;;;4981684;28;20027;-75
2022/05/28 04:57:54;;;;;;;6.43;2.17;;;9.70;99.90;;;;;;4978210;28;20026;-74
2022/05/28 05:00:22;;;;;;;10.43;2.95;;;9.80;99.90;;;;;;4974221;28;20383;-76
2022/05/28 05:02:48;;;;;;;12.18;2.50;;;9.90;99.90;;;;;;4976332;28;20031;-76
2022/05/28 05:05:14;;;;;;;10.23;2.58;;;9.90;99.90;;;;;;4984732;28;20032;-74
2022/05/28 05:07:39;;;;;;;13.07;2.63;;;10.00;99.90;;;;;;4983524;28;20720;-74
2022/05/28 05:10:06;;;;;;;13.38;2.50;;;10.00;99.90;;;;;;4980630;28;20118;-74
2022/05/28 05:12:32;;;;;;;10.32;2.20;;;10.10;99.90;;;;;;4979557;28;20030;-75
2022/05/28 05:14:57;;;;;;;13.30;2.28;;;10.10;99.90;;;;;;4986175;28;20113;-74
2022/05/28 05:17:23;;;;;;;10.77;2.10;;;10.20;99.90;;;;;;4982545;28;20025;-75
2022/05/28 05:19:48;;;;;;;10.38;2.47;;;10.30;99.90;;;;;;4987315;28;20022;-75
2022/05/28 05:22:14;;;;;;;12.10;2.83;;;10.20;99.90;;;;;;4964666;28;20043;-74
2022/05/28 05:24:40;;;;;;;11.18;2.80;;;10.20;99.90;;;;;;4986282;28;20120;-75
2022/05/28 05:27:06;;;;;;;12.10;3.00;;;10.30;99.90;;;;;;4980425;28;20100;-74
2022/05/28 05:29:31;;;;;;;12.63;2.70;;;10.40;99.90;;;;;;4983578;28;20066;-75
2022/05/28 05:31:57;;;;;;;12.38;2.75;;;10.50;99.90;;;;;;4979497;28;20037;-75
2022/05/28 05:34:23;;;;;;;14.57;2.92;;;10.50;99.90;;;;;;4979380;28;20093;-75
2022/05/28 05:36:49;;;;;;;11.95;2.85;;;10.60;99.90;;;;;;4982130;28;20528;-74
2022/05/28 05:39:14;;;;;;;13.52;2.85;;;10.70;99.90;;;;;;4988399;28;20031;-75
2022/05/28 05:41:41;;;;;;;13.30;3.00;;;10.70;99.90;;;;;;4979846;28;20518;-74
2022/05/28 05:44:08;;;;;;;16.45;3.25;;;10.80;99.90;;;;;;4979502;28;20038;-76
2022/05/28 05:46:34;;;;;;;19.02;4.05;;;10.90;99.90;;;;;;4983827;28;20817;-76
2022/05/28 05:49:00;;;;;;;11.18;2.72;;;11.00;99.90;;;;;;4979192;28;20077;-75
2022/05/28 05:51:28;;;;;;;11.20;2.88;;;11.20;99.90;;;;;;4982322;28;20034;-76
2022/05/28 05:53:53;;;;;;;18.42;3.20;;;11.20;99.90;;;;;;4983565;28;20582;-75
2022/05/28 05:56:19;;;;;;;13.05;2.88;;;11.20;99.90;;;;;;4985512;28;20113;-75
2022/05/28 05:58:45;;;;;;;9.45;2.28;;;11.10;99.90;;;;;;4981727;28;20033;-75
2022/05/28 06:01:11;;;;;;;9.75;1.92;;;11.10;99.90;;;;;;4971059;28;20697;-75
2022/05/28 06:03:44;;;;;;;9.82;1.85;;;11.00;99.90;;;;;;4976293;28;20098;-75
2022/05/28 06:06:15;;;;;;;8.60;1.83;;;10.90;99.90;;;;;;4973421;28;20039;-75
2022/05/28 06:08:41;;;;;;;6.63;1.83;;;10.90;99.90;;;;;;4985883;28;20438;-74
2022/05/28 06:11:07;;;;;;;7.88;1.60;;;11.00;99.90;;;;;;4966098;28;20042;-76
2022/05/28 06:13:33;;;;;;;8.25;1.77;;;10.90;99.90;;;;;;4980191;28;20116;-74
2022/05/28 06:16:00;;;;;;;13.35;2.40;;;11.00;99.90;;;;;;4975834;28;20066;-76
2022/05/28 06:18:25;;;;;;;10.73;2.33;;;10.90;99.90;;;;;;4969396;28;21433;-77
2022/05/28 06:20:53;;;;;;;9.68;2.08;;;11.00;99.90;;;;;;4964826;28;20054;-76
2022/05/28 06:23:22;;;;;;;11.10;1.90;;;11.10;99.90;;;;;;4976588;28;20149;-76
2022/05/28 06:25:48;;;;;;;6.72;2.00;;;11.10;99.90;;;;;;4981097;28;20034;-75
2022/05/28 06:28:14;;;;;;;11.68;2.17;;;11.10;99.90;;;;;;4985388;28;20037;-76
2022/05/28 06:30:42;;;;;;;10.75;2.80;;;11.20;99.90;;;;;;4980094;28;20034;-76
2022/05/28 06:33:11;;;;;;;13.02;2.70;;;11.20;99.90;;;;;;4976260;28;20123;-76
2022/05/28 06:35:37;;;;;;;10.55;2.28;;;11.30;99.90;;;;;;4982830;28;20038;-76
2022/05/28 06:38:03;;;;;;;11.80;2.25;;;11.30;99.90;;;;;;4983563;28;20023;-76
2022/05/28 06:40:31;;;;;;;13.55;2.75;;;11.40;99.90;;;;;;4995167;28;20042;-79
2022/05/28 06:42:59;;;;;;;19.80;2.85;;;11.40;99.90;;;;;;4998621;28;20043;-80
2022/05/28 06:45:25;;;;;;;12.10;3.22;;;11.60;99.90;;;;;;5000599;28;20038;-79
2022/05/28 06:47:51;;;;;;;11.93;2.88;;;11.80;99.90;;;;;;5008467;28;20103;-81
2022/05/28 06:53:03;;;;;;;11.07;2.90;;;11.90;99.90;;;;;;4988504;28;20546;-75
2022/05/28 06:55:29;;;;;;;11.65;2.70;;;11.80;99.90;;;;;;4987412;28;20030;-75
2022/05/28 06:57:55;;;;;;;11.38;2.53;;;11.70;99.90;;;;;;4988287;28;20490;-75
2022/05/28 07:00:21;;;;;;;17.15;2.83;;;11.70;99.90;;;;;;4977366;28;20035;-74
2022/05/28 07:02:47;;;;;;;11.98;3.10;;;11.80;99.90;;;;;;4982405;28;20037;-75
2022/05/28 07:05:14;;;;;;;17.27;3.05;;;11.70;99.90;;;;;;4977620;28;21301;-79
2022/05/28 07:07:41;;;;;;;16.52;3.17;;;11.90;99.90;;;;;;4986243;28;20653;-77
2022/05/28 07:10:08;;;;;;;14.43;3.25;;;11.80;99.90;;;;;;4981676;28;20122;-76
2022/05/28 07:12:33;;;;;;;11.30;2.40;;;11.80;99.90;;;;;;4987596;28;20261;-75
2022/05/28 07:14:59;;;;;;;13.02;2.70;;;11.80;99.90;;;;;;4982505;28;20093;-75
2022/05/28 07:17:25;;;;;;;14.57;3.47;;;11.90;99.90;;;;;;4986134;28;20022;-77
2022/05/28 07:19:51;;;;;;;13.65;2.55;;;12.00;99.90;;;;;;4981704;28;20081;-77
2022/05/28 07:22:17;;;;;;;16.52;3.20;;;12.00;99.90;;;;;;4987204;28;20062;-75
2022/05/28 07:24:43;;;;;;;13.60;3.15;;;12.30;99.90;;;;;;4984555;28;20063;-78
2022/05/28 07:27:11;;;;;;;11.32;2.67;;;12.30;99.90;;;;;;4996950;28;20502;-76
2022/05/28 07:29:38;;;;;;;13.43;2.80;;;12.40;99.90;;;;;;4983749;28;20034;-79
2022/05/28 07:32:04;;;;;;;12.18;2.63;;;12.60;99.90;;;;;;4978604;28;20041;-78
2022/05/28 07:34:33;;;;;;;17.52;3.33;;;12.50;99.90;;;;;;4985962;28;20058;-76
2022/05/28 07:36:59;;;;;;;14.82;2.90;;;12.30;99.90;;;;;;4988315;28;20514;-77
2022/05/28 07:39:26;;;;;;;11.35;2.60;;;12.10;99.90;;;;;;4966911;28;20026;-76
2022/05/28 07:41:52;;;;;;;10.02;2.70;;;12.10;99.90;;;;;;4984127;28;20111;-76
2022/05/28 07:44:18;;;;;;;13.75;2.83;;;12.00;99.90;;;;;;4987127;28;20062;-76
2022/05/28 07:46:44;;;;;;;12.07;2.47;;;11.90;99.90;;;;;;4972564;28;20035;-75
2022/05/28 07:49:10;;;;;;;12.32;2.78;;;11.80;99.90;;;;;;4966746;28;20056;-79
2022/05/28 07:51:35;;;;;;;15.77;3.40;;;11.90;99.90;;;;;;4975334;28;20129;-78
2022/05/28 07:54:02;;;;;;;10.25;2.55;;;12.00;99.90;;;;;;4981965;28;20403;-78
2022/05/28 07:56:29;;;;;;;12.88;3.03;;;12.10;99.90;;;;;;4978650;28;20137;-77
2022/05/28 07:58:57;;;;;;;11.10;2.83;;;12.20;99.90;;;;;;4974966;28;20095;-77
2022/05/28 08:01:26;;;;;;;15.40;3.03;;;12.30;99.90;;;;;;4975446;28;20113;-78
2022/05/28 08:03:53;;;;;;;14.60;3.15;;;12.30;99.90;;;;;;4955227;28;20511;-79
2022/05/28 08:06:20;;;;;;;14.07;2.95;;;12.20;99.90;;;;;;4970521;28;20039;-75
2022/05/28 08:08:47;;;;;;;14.30;4.07;;;12.30;99.90;;;;;;4978237;28;20061;-79
2022/05/28 08:11:13;;;;;;;13.52;2.60;;;12.40;99.90;;;;;;4967509;28;20031;-77
2022/05/28 08:13:39;;;;;;;10.07;2.65;;;12.40;99.90;;;;;;4972172;28;20035;-80
2022/05/28 08:16:05;;;;;;;12.10;2.70;;;12.40;99.90;;;;;;4964777;28;20058;-77
2022/05/28 08:18:30;;;;;;;11.52;2.92;;;12.30;99.90;;;;;;4980764;28;20101;-76
2022/05/28 08:23:43;;;;;;;17.30;2.90;;;12.40;99.90;;;;;;4975989;28;20030;-77
2022/05/28 08:26:11;;;;;;;12.55;2.75;;;12.50;99.90;;;;;;4972844;28;20037;-76
2022/05/28 08:28:39;;;;;;;14.73;3.17;;;12.50;99.90;;;;;;4975513;28;20038;-74
2022/05/28 08:31:05;;;;;;;12.25;2.92;;;12.60;99.90;;;;;;4969247;28;20034;-79
2022/05/28 08:33:32;;;;;;;15.27;2.70;;;12.70;99.90;;;;;;4982010;28;20101;-76
2022/05/28 08:35:59;;;;;;;15.70;3.03;;;12.90;99.90;;;;;;4981309;28;20037;-77
2022/05/28 08:38:26;;;;;;;17.00;3.13;;;12.90;99.90;;;;;;4973970;28;20027;-76
2022/05/28 08:41:15;;;;;;;15.00;2.95;;;12.90;99.90;;;;;;4952280;28;20054;-77
2022/05/28 08:44:08;;;;;;;13.20;2.75;;;12.80;99.90;;;;;;4975366;28;20030;-75
2022/05/28 08:46:36;;;;;;;10.60;2.75;;;12.80;99.90;;;;;;4962681;28;20413;-80
2022/05/28 08:49:05;;;;;;;13.50;2.90;;;12.80;99.90;;;;;;4965257;28;20062;-78
2022/05/28 08:51:46;;;;;;;17.67;3.05;;;12.80;99.90;;;;;;4972257;28;20362;-80
2022/05/28 08:54:40;;;;;;;12.18;2.88;;;13.00;99.90;;;;;;4963593;28;20130;-77
2022/05/28 08:57:13;;;;;;;11.50;2.50;;;13.00;99.90;;;;;;4974027;28;20038;-75
2022/05/28 08:59:52;;;;;;;14.15;3.58;;;13.10;99.90;;;;;;4959131;28;20050;-77
2022/05/28 09:02:48;;;;;;;13.43;2.88;;;13.20;99.90;;;;;;4966537;28;20039;-76
2022/05/28 09:05:23;;;;;;;16.23;3.20;;;12.90;99.90;;;;;;4975726;28;20133;-75
2022/05/28 09:07:50;;;;;;;9.77;2.83;;;12.70;99.90;;;;;;4954166;28;20039;-75
2022/05/28 09:10:16;;;;;;;14.40;2.72;;;12.60;99.90;;;;;;4981589;28;20035;-74
2022/05/28 09:12:53;;;;;;;12.13;2.15;;;12.70;99.90;;;;;;4989551;28;20032;-75
2022/05/28 09:15:19;;;;;;;8.77;2.10;;;12.70;99.90;;;;;;4977966;28;20041;-79
2022/05/28 09:17:48;;;;;;;11.18;2.47;;;12.80;99.90;;;;;;4962258;28;20022;-76
2022/05/28 09:20:21;;;;;;;10.13;2.40;;;12.90;99.90;;;;;;4978294;28;20134;-76
2022/05/28 09:22:47;;;;;;;11.63;2.40;;;13.20;99.90;;;;;;4979489;28;20319;-75
2022/05/28 09:25:18;;;;;;;10.93;2.95;;;13.30;99.90;;;;;;4974731;28;20029;-75
2022/05/28 09:27:46;;;;;;;10.48;2.40;;;13.40;99.90;;;;;;4978002;28;20031;-76
2022/05/28 09:30:45;;;;;;;9.52;2.15;;;13.30;99.90;;;;;;4974215;28;20105;-75
2022/05/28 09:33:38;;;;;;;14.45;2.95;;;13.30;99.90;;;;;;4982476;28;20085;-76
2022/05/28 09:36:13;;;;;;;18.27;2.85;;;13.50;99.90;;;;;;4982540;28;20495;-76
2022/05/28 09:38:54;;;;;;;13.93;3.25;;;13.60;99.90;;;;;;4978537;28;20022;-76
2022/05/28 09:41:32;;;;;;;;;;;13.50;99.90;;;;;;4974700;28;20042;-79
2022/05/28 09:44:03;;;;;;;13.68;2.75;;;13.40;99.90;;;;;;4975654;28;20406;-74
2022/05/28 09:46:37;;;;;;;11.82;2.45;;;13.00;99.90;;;;;;4962007;28;20038;-74
2022/05/28 09:49:18;;;;;;;16.02;2.50;;;12.90;99.90;;;;;;4969416;28;20030;-77
2022/05/28 09:51:53;;;;;;;11.63;2.38;;;12.70;99.90;;;;;;4976395;28;20309;-75
2022/05/28 09:54:30;;;;;;;12.57;2.80;;;12.60;99.90;;;;;;4987546;28;20089;-78
2022/05/28 09:57:09;;;;;;;14.82;2.53;;;12.80;99.90;;;;;;4980319;28;20563;-75
2022/05/28 09:59:46;;;;;;;9.90;2.17;;;13.10;99.90;;;;;;4980593;28;20038;-78
2022/05/28 10:02:24;;;;;;;15.23;3.40;;;13.40;99.90;;;;;;4965507;28;20094;-77
2022/05/28 10:05:11;;;;;;;12.13;2.58;;;13.70;99.90;;;;;;4981486;28;20031;-74
2022/05/28 10:07:52;;;;;;;9.10;2.53;;;13.90;99.90;;;;;;4966742;28;20046;-75
2022/05/28 10:10:27;;;;;;;14.47;2.27;;;13.90;99.90;;;;;;4977120;28;20038;-75
2022/05/28 10:13:15;;;;;;;10.32;3.00;;;13.80;99.90;;;;;;4984597;28;20038;-79
2022/05/28 10:15:46;;;;;;;7.13;1.92;;;13.70;99.90;;;;;;4985552;28;20035;-74
2022/05/28 10:18:17;;;;;;;11.65;2.38;;;13.70;99.90;;;;;;4976660;28;20548;-75
2022/05/28 10:20:43;;;;;;;13.07;2.00;;;13.60;99.90;;;;;;4974376;28;20046;-76
2022/05/28 10:23:19;;;;;;;10.40;2.35;;;13.40;99.90;;;;;;4964493;28;20069;-78
2022/05/28 10:25:50;;;;;;;9.60;2.05;;;13.40;99.90;;;;;;4981545;28;20425;-77
2022/05/28 10:28:27;;;;;;;;;;;13.50;99.90;;;;;;4987563;28;20026;-75
2022/05/28 10:30:53;;;;;;;11.20;2.60;;;13.80;99.90;;;;;;4982876;28;19914;-77
2022/05/28 10:33:31;;;;;;;15.43;2.72;;;14.10;99.90;;;;;;4983443;28;20379;-77
2022/05/28 10:36:08;;;;;;;13.73;2.83;;;14.10;99.90;;;;;;4986428;28;20038;-76
2022/05/28 10:38:33;;;;;;;12.77;3.13;;;13.80;99.90;;;;;;4980327;28;20023;-76
2022/05/28 10:41:12;;;;;;;9.70;2.58;;;13.50;99.90;;;;;;4983870;28;20112;-78
2022/05/28 10:43:38;;;;;;;14.25;2.78;;;13.40;99.90;;;;;;4984149;28;20133;-76
2022/05/28 10:46:11;;;;;;;18.88;3.33;;;13.30;99.90;;;;;;4982292;28;20034;-74
2022/05/28 10:49:14;;;;;;;9.40;2.28;;;13.40;99.90;;;;;;4984187;28;20038;-73
2022/05/28 10:52:03;;;;;;;13.23;2.60;;;13.60;99.90;;;;;;4974435;28;20117;-74
2022/05/28 10:54:42;;;;;;;8.15;2.10;;;13.80;99.90;;;;;;4985220;28;20085;-75
2022/05/28 10:57:32;;;;;;;13.85;2.88;;;14.30;99.90;;;;;;4984935;28;20034;-74
2022/05/28 11:00:11;;;;;;;13.75;2.97;;;14.70;99.90;;;;;;4980642;28;20390;-74
2022/05/28 11:02:55;;;;;;;11.90;2.17;;;15.10;99.90;;;;;;4984098;28;20022;-74
2022/05/28 11:05:59;;;;;;;10.98;3.35;;;15.30;99.90;;;;;;4965837;28;20033;-78
2022/05/28 11:08:49;;;;;;;12.07;2.75;;;15.20;99.90;;;;;;4984836;28;20498;-77
2022/05/28 11:11:37;;;;;;;13.52;2.30;;;14.90;99.90;;;;;;4966520;28;20108;-75
2022/05/28 11:14:20;;;;;;;12.20;2.58;;;14.30;99.90;;;;;;4981662;28;20042;-75
2022/05/28 11:17:10;;;;;;;11.57;3.10;;;14.00;99.90;;;;;;4968217;28;20033;-77
2022/05/28 11:20:13;;;;;;;12.13;2.00;;;14.20;99.90;;;;;;4978367;28;20033;-76
2022/05/28 11:23:05;;;;;;;9.75;2.05;;;15.70;99.90;;;;;;4960805;28;20031;-76
2022/05/28 11:26:07;;;;;;;9.48;1.70;;;16.50;99.90;;;;;;4962182;28;20043;-76
2022/05/28 11:28:48;;;;;;;7.63;1.88;;;16.00;99.90;;;;;;4965924;28;20388;-75
2022/05/28 11:31:16;;;;;;;16.77;3.38;;;15.20;99.90;;;;;;4975293;28;20073;-77
2022/05/28 11:33:47;;;;;;;10.52;2.55;;;14.70;99.90;;;;;;4955199;28;20065;-77
2022/05/28 11:36:22;;;;;;;11.18;2.78;;;14.10;99.90;;;;;;4967305;28;20122;-78
2022/05/28 11:39:08;;;;;;;13.32;3.55;;;13.80;99.90;;;;;;4970254;28;20030;-77
2022/05/28 11:41:49;;;;;;;18.08;3.90;;;13.60;99.90;;;;;;4956339;28;20041;-78
2022/05/28 11:44:28;;;;;;;15.55;3.33;;;13.50;99.90;;;;;;4974026;28;20030;-77
2022/05/28 11:47:25;;;;;;;13.00;3.38;;;13.30;99.90;;;;;;4969728;28;20138;-77
2022/05/28 11:53:09;;;;;;;14.23;3.10;;;13.00;99.90;;;;;;4978807;28;20037;-75
2022/05/28 11:55:37;;;;;;;17.92;3.20;;;13.50;99.90;;;;;;4973146;28;20034;-77
2022/05/28 11:58:10;;;;;;;14.50;4.22;;;14.70;99.90;;;;;;4977274;28;20049;-77
2022/05/28 12:00:39;;;;;;;25.50;4.68;;;15.30;99.90;;;;;;4970627;28;20023;-76
2022/05/28 12:03:16;;;;;;;14.85;3.00;;;15.10;99.90;;;;;;4973483;28;20030;-77
2022/05/28 12:05:56;;;;;;;13.68;2.70;;;14.70;99.90;;;;;;4979015;28;20084;-78
2022/05/28 12:08:34;;;;;;;14.48;2.58;;;14.20;99.90;;;;;;4978328;28;20026;-78
2022/05/28 12:11:04;;;;;;;16.15;2.95;;;13.80;99.90;;;;;;4981018;28;20037;-81
2022/05/28 12:13:56;;;;;;;12.57;2.97;;;13.60;99.90;;;;;;4980545;28;20029;-77
2022/05/28 12:16:21;;;;;;;18.52;3.03;;;13.50;99.90;;;;;;4966503;28;20490;-77
2022/05/28 12:19:20;;;;;;;16.20;3.20;;;13.50;99.90;;;;;;4963619;28;20046;-78
2022/05/28 12:21:46;;;;;;;12.02;2.88;;;13.60;99.90;;;;;;4958243;28;20125;-82
2022/05/28 12:24:18;;;;;;;16.30;3.28;;;13.70;99.90;;;;;;4979219;28;20650;-77
2022/05/28 12:29:33;;;;;;;14.90;2.92;;;14.20;99.90;;;;;;4962967;28;20034;-79
2022/05/28 12:32:18;;;;;;;13.48;3.00;;;14.20;99.90;;;;;;4976238;28;20380;-78
2022/05/28 12:35:02;;;;;;;12.75;2.00;;;13.90;99.90;;;;;;4977040;28;20545;-80
2022/05/28 12:37:36;;;;;;;11.63;2.38;;;13.60;99.90;;;;;;4961894;28;20085;-79
2022/05/28 12:40:20;;;;;;;11.25;2.38;;;13.70;99.90;;;;;;4984203;28;20049;-80
2022/05/28 12:42:46;;;;;;;11.18;2.53;;;13.90;99.90;;;;;;4969623;28;20050;-79
2022/05/28 12:45:24;;;;;;;7.00;1.85;;;14.00;99.90;;;;;;4983403;28;20435;-79
2022/05/28 12:47:49;;;;;;;6.43;1.25;;;14.00;99.90;;;;;;4976267;28;20498;-79
2022/05/28 12:50:45;;;;;;;13.75;2.28;;;13.90;99.90;;;;;;4975070;28;20045;-78
2022/05/28 12:53:20;;;;;;;9.80;1.73;;;14.00;99.90;;;;;;4984187;28;20113;-77
2022/05/28 12:55:46;;;;;;;291.17;157.82;;;14.00;99.90;;;;;;4988805;28;20570;-77
2022/05/28 12:58:27;;;;;;;265.58;171.32;;;13.90;99.90;;;;;;4989061;28;20038;-79
2022/05/28 13:00:57;;;;;;;25.52;11.45;;;13.90;99.90;;;;;;4972190;28;20462;-78
2022/05/28 13:03:28;;;;;;;17.60;9.07;;;13.80;99.90;;;;;;4968504;28;20034;-78
2022/05/28 13:06:21;;;;;;;17.00;3.05;;;13.70;99.90;;;;;;4974744;28;20042;-78
2022/05/28 13:09:08;;;;;;;10.52;2.63;;;13.50;99.90;;;;;;4975562;28;20029;-78
2022/05/28 13:12:06;;;;;;;12.75;2.10;;;13.30;99.90;;;;;;4964761;28;20065;-79
2022/05/28 13:14:32;;;;;;;9.65;2.38;;;13.10;99.90;;;;;;4961102;28;20126;-79
2022/05/28 13:17:16;;;;;;;10.63;2.22;;;13.00;99.90;;;;;;4968400;28;20092;-77